Time;durP1;ratioP1;P1;durP2;ratioP2;P2;SDS_P1;SDS_P2;PMS_P1;PMS_P2;Temp;Humidity;BMP_temperature;BMP_pressure;BME280_temperature;BME280_humidity;BME280_pressure;Samples;Min_cycle;Max_cycle;Signal;HPM_P1;HPM_P2
2023/07/16 00:00:50;;;;;;;13.20;9.05;;;;;;;28.46;49.97;95442.03;4972585;28;20463;-80
2023/07/16 00:03:15;;;;;;;13.23;8.43;;;;;;;28.03;50.71;95409.81;4966091;28;20500;-80
2023/07/16 00:05:41;;;;;;;18.95;8.48;;;;;;;28.58;49.96;95469.00;4968379;28;20035;-80
2023/07/16 00:08:06;;;;;;;20.52;8.88;;;;;;;28.53;49.85;95453.03;4966486;28;20417;-79
2023/07/16 00:10:36;;;;;;;14.75;8.63;;;;;;;28.50;50.11;95449.09;4968877;28;20117;-79
2023/07/16 00:13:02;;;;;;;19.08;8.95;;;;;;;28.54;50.08;95451.81;4966445;28;20050;-79
2023/07/16 00:15:28;;;;;;;16.48;8.80;;;;;;;28.61;49.96;95458.09;4968112;28;20043;-80
2023/07/16 00:17:54;;;;;;;12.07;7.90;;;;;;;28.51;50.09;95458.06;4966477;28;20149;-80
2023/07/16 00:20:20;;;;;;;11.18;7.82;;;;;;;28.35;49.60;95423.69;4967796;28;20027;-80
2023/07/16 00:22:46;;;;;;;14.52;7.60;;;;;;;28.45;49.85;95433.09;4966877;28;20042;-80
2023/07/16 00:25:12;;;;;;;13.73;7.65;;;;;;;28.32;49.85;95416.25;5038579;28;20075;-80
2023/07/16 00:27:37;;;;;;;12.93;8.00;;;;;;;28.27;49.92;95415.84;4968337;28;20050;-80
2023/07/16 00:30:03;;;;;;;11.85;7.97;;;;;;;28.32;49.51;95420.94;4966866;28;20527;-80
2023/07/16 00:32:29;;;;;;;18.27;8.32;;;;;;;28.35;49.79;95433.81;4967965;28;20038;-80
2023/07/16 00:34:54;;;;;;;11.70;7.97;;;;;;;28.50;49.79;95462.75;4966552;28;20034;-79
2023/07/16 00:37:20;;;;;;;17.02;8.15;;;;;;;28.38;50.10;95442.00;4967588;28;20038;-80
2023/07/16 00:39:45;;;;;;;10.75;7.15;;;;;;;28.45;50.26;95460.38;4966268;28;20034;-80
2023/07/16 00:42:10;;;;;;;13.57;6.93;;;;;;;28.42;50.02;95453.72;4966953;28;20041;-79
2023/07/16 00:44:36;;;;;;;13.95;7.28;;;;;;;28.26;49.99;95425.19;4966960;28;20164;-80
2023/07/16 00:47:02;;;;;;;13.88;7.20;;;;;;;28.49;50.26;95465.84;4967925;28;20116;-80
2023/07/16 00:49:29;;;;;;;10.45;7.15;;;;;;;28.14;50.06;95420.81;4967670;28;20458;-80
2023/07/16 00:51:54;;;;;;;10.10;6.28;;;;;;;28.11;50.30;95421.56;4968056;28;20057;-80
2023/07/16 00:54:20;;;;;;;15.18;6.53;;;;;;;28.10;49.82;95413.75;4966322;28;20127;-80
2023/07/16 00:56:45;;;;;;;14.40;6.18;;;;;;;28.17;50.32;95433.69;4967666;28;20046;-80
2023/07/16 00:59:11;;;;;;;14.48;6.22;;;;;;;28.24;50.29;95439.19;4966050;28;20057;-80
2023/07/16 01:01:39;;;;;;;13.57;6.20;;;;;;;28.26;50.25;95444.28;4965825;28;20035;-80
2023/07/16 01:04:05;;;;;;;9.55;5.68;;;;;;;28.29;50.23;95454.44;4966592;28;20126;-80
2023/07/16 01:06:30;;;;;;;14.75;5.80;;;;;;;28.24;50.45;95461.00;4966358;28;20043;-80
2023/07/16 01:09:03;;;;;;;13.13;6.10;;;;;;;27.98;50.64;95420.31;4965817;28;20156;-80
2023/07/16 01:11:30;;;;;;;14.45;5.72;;;;;;;28.16;50.04;95453.16;4965482;28;20246;-80
2023/07/16 01:13:57;;;;;;;9.65;5.85;;;;;;;27.86;50.60;95409.69;4966116;28;20478;-80
2023/07/16 01:16:24;;;;;;;12.35;6.00;;;;;;;28.17;50.44;95452.00;4966518;28;20552;-80
2023/07/16 01:18:50;;;;;;;12.98;6.03;;;;;;;27.99;50.58;95444.47;4966343;28;20034;-79
2023/07/16 01:21:19;;;;;;;13.68;5.60;;;;;;;28.17;50.51;95462.91;4967036;28;20455;-80
2023/07/16 01:23:51;;;;;;;11.75;6.05;;;;;;;28.09;50.49;95455.81;4967179;28;20069;-80
2023/07/16 01:26:25;;;;;;;9.15;5.82;;;;;;;28.14;50.49;95453.53;4966111;28;20140;-80
2023/07/16 01:29:15;;;;;;;15.50;6.57;;;;;;;28.09;50.38;95458.53;4966240;28;20035;-80
2023/07/16 01:31:41;;;;;;;8.73;6.25;;;;;;;27.84;50.69;95428.38;4967683;28;20034;-80
2023/07/16 01:34:10;;;;;;;12.48;5.70;;;;;;;27.85;50.61;95427.97;4970356;28;20035;-80
2023/07/16 01:36:37;;;;;;;8.00;6.05;;;;;;;27.96;50.93;95444.44;4971037;28;20042;-80
2023/07/16 01:39:02;;;;;;;14.73;6.35;;;;;;;28.03;50.81;95461.63;4970114;28;20112;-79
2023/07/16 01:41:28;;;;;;;10.27;6.00;;;;;;;27.80;50.69;95428.34;4970278;28;20034;-79
2023/07/16 01:43:53;;;;;;;12.15;5.90;;;;;;;27.90;50.69;95446.72;4972210;28;20066;-79
2023/07/16 01:46:19;;;;;;;10.68;6.00;;;;;;;27.93;50.51;95447.91;4968692;28;20536;-79
2023/07/16 01:48:44;;;;;;;9.88;5.88;;;;;;;28.00;50.42;95461.59;4970265;28;20419;-80
2023/07/16 01:51:13;;;;;;;15.82;6.93;;;;;;;27.86;50.66;95456.81;4968583;28;20043;-80
2023/07/16 01:53:39;;;;;;;9.30;5.25;;;;;;;27.92;50.68;95468.16;4969175;28;20045;-80
2023/07/16 01:56:05;;;;;;;9.88;6.13;;;;;;;27.91;50.76;95461.94;4970580;28;20043;-80
2023/07/16 01:58:30;;;;;;;11.98;5.97;;;;;;;27.76;50.48;95443.91;4970260;28;20043;-80
2023/07/16 02:00:56;;;;;;;8.27;4.68;;;;;;;27.86;50.80;95466.94;4968885;28;20046;-79
2023/07/16 02:03:21;;;;;;;13.02;5.45;;;;;;;27.72;50.18;95439.56;4968383;28;20062;-79
2023/07/16 02:05:48;;;;;;;12.70;5.28;;;;;;;27.61;50.52;95420.41;4969083;28;20039;-79
2023/07/16 02:08:13;;;;;;;11.25;5.10;;;;;;;27.76;50.28;95443.13;4970332;28;20485;-80
2023/07/16 02:10:38;;;;;;;9.85;5.20;;;;;;;27.69;50.78;95448.50;4968859;28;20104;-80
2023/07/16 02:13:04;;;;;;;13.05;5.28;;;;;;;27.80;50.87;95463.78;4968164;28;20058;-80
2023/07/16 02:15:29;;;;;;;11.98;4.95;;;;;;;27.70;50.57;95456.28;4968744;28;20031;-79
2023/07/16 02:17:55;;;;;;;9.40;5.63;;;;;;;27.33;50.45;95395.59;4968839;28;20030;-80
2023/07/16 02:20:20;;;;;;;10.52;5.85;;;;;;;27.72;50.73;95466.81;4969707;28;20058;-80
2023/07/16 02:22:46;;;;;;;9.60;6.28;;;;;;;27.60;50.90;95441.44;4969757;28;20045;-80
2023/07/16 02:25:11;;;;;;;11.32;6.35;;;;;;;27.34;50.91;95422.47;4969687;28;20068;-80
2023/07/16 02:27:37;;;;;;;13.05;6.93;;;;;;;27.59;50.89;95464.38;4970161;28;20142;-80
2023/07/16 02:30:03;;;;;;;14.20;6.68;;;;;;;27.58;50.69;95459.28;4970043;28;20108;-80
2023/07/16 02:32:28;;;;;;;16.60;6.72;;;;;;;27.49;51.24;95445.16;4968043;28;20130;-80
2023/07/16 02:34:54;;;;;;;13.55;6.80;;;;;;;27.26;51.14;95424.34;4969925;28;20134;-80
2023/07/16 02:37:19;;;;;;;13.88;7.22;;;;;;;27.59;50.91;95471.75;4969848;28;20481;-80
2023/07/16 02:39:46;;;;;;;9.07;6.10;;;;;;;27.49;51.45;95465.03;4968257;28;20043;-80
2023/07/16 02:42:12;;;;;;;10.88;5.82;;;;;;;27.42;51.08;95450.53;4967971;28;20049;-80
2023/07/16 02:44:41;;;;;;;12.18;6.00;;;;;;;27.41;50.95;95452.50;4968070;28;20039;-80
2023/07/16 02:47:07;;;;;;;12.98;5.50;;;;;;;27.27;51.65;95434.06;4972830;28;20126;-80
2023/07/16 02:49:32;;;;;;;8.02;5.05;;;;;;;27.34;51.33;95446.97;5057083;28;20119;-80
2023/07/16 02:51:58;;;;;;;10.75;5.18;;;;;;;27.38;51.74;95461.44;4968021;28;20081;-79
2023/07/16 02:54:23;;;;;;;12.20;4.82;;;;;;;27.45;51.26;95474.31;4967599;28;20416;-80
2023/07/16 02:56:49;;;;;;;10.00;5.13;;;;;;;27.19;51.19;95434.38;4968100;28;20038;-80
2023/07/16 02:59:14;;;;;;;9.88;4.95;;;;;;;27.34;51.21;95457.06;5001503;28;20146;-80
2023/07/16 03:01:40;;;;;;;11.60;4.72;;;;;;;27.35;51.67;95462.16;5031805;28;20037;-80
2023/07/16 03:04:05;;;;;;;7.90;5.13;;;;;;;27.22;51.94;95448.03;4968834;28;20118;-79
2023/07/16 03:06:30;;;;;;;11.15;4.93;;;;;;;27.30;51.67;95462.50;5020080;28;20108;-79
2023/07/16 03:08:56;;;;;;;12.73;5.10;;;;;;;27.29;51.76;95463.66;5013541;28;20109;-79
2023/07/16 03:11:22;;;;;;;10.05;4.78;;;;;;;27.22;51.52;95455.41;4967399;28;20120;-79
2023/07/16 03:13:47;;;;;;;13.73;4.90;;;;;;;27.31;51.61;95474.97;4967542;28;20475;-80
2023/07/16 03:16:13;;;;;;;8.88;5.10;;;;;;;27.31;51.85;95488.59;4969658;28;20031;-80
2023/07/16 03:18:38;;;;;;;16.95;5.82;;;;;;;27.10;51.97;95464.59;4967812;28;20045;-79
2023/07/16 03:21:04;;;;;;;10.18;5.45;;;;;;;27.21;52.34;95487.31;4967799;28;20034;-79
2023/07/16 03:23:29;;;;;;;10.98;5.97;;;;;;;27.18;52.46;95481.81;4969152;28;20069;-80
2023/07/16 03:25:54;;;;;;;12.15;6.18;;;;;;;27.13;52.27;95484.88;4967220;28;20580;-79
2023/07/16 03:28:20;;;;;;;16.38;5.22;;;;;;;26.94;52.26;95461.31;4969216;28;20035;-80
2023/07/16 03:30:50;;;;;;;10.32;5.57;;;;;;;27.02;52.90;95492.91;4967227;28;20042;-80
2023/07/16 03:33:16;;;;;;;12.60;6.40;;;;;;;26.63;52.94;95440.69;4967683;28;20031;-79
2023/07/16 03:35:45;;;;;;;10.05;5.35;;;;;;;26.80;53.13;95489.09;4968540;28;20517;-80
2023/07/16 03:38:11;;;;;;;9.55;4.85;;;;;;;26.89;53.34;95492.34;4967708;28;20066;-80
2023/07/16 03:40:37;;;;;;;10.07;5.22;;;;;;;26.75;53.00;95483.22;4969171;28;20031;-80
2023/07/16 03:43:03;;;;;;;11.32;4.63;;;;;;;26.54;53.78;95480.22;4967589;28;20031;-80
2023/07/16 03:45:29;;;;;;;12.27;4.78;;;;;;;26.69;53.16;95506.47;4967317;28;20431;-80
2023/07/16 03:47:54;;;;;;;8.48;4.72;;;;;;;26.46;53.55;95476.63;4968523;28;20552;-80
2023/07/16 03:50:19;;;;;;;11.02;5.10;;;;;;;26.45;53.23;95473.13;4967541;28;20508;-80
2023/07/16 03:52:45;;;;;;;15.63;5.85;;;;;;;26.38;53.19;95456.69;4966969;28;20528;-80
2023/07/16 03:55:10;;;;;;;10.05;5.25;;;;;;;26.57;53.73;95491.13;4967765;28;20495;-80
2023/07/16 03:57:36;;;;;;;10.80;5.57;;;;;;;26.59;53.53;95497.00;4967540;28;20045;-79
2023/07/16 04:00:08;;;;;;;9.10;5.63;;;;;;;26.65;53.45;95509.13;4967430;28;20038;-80
2023/07/16 04:02:33;;;;;;;9.15;5.25;;;;;;;26.66;53.52;95512.63;4967377;28;20057;-79
2023/07/16 04:04:59;;;;;;;13.93;5.70;;;;;;;26.64;53.38;95504.81;4967914;28;20031;-79
2023/07/16 04:07:24;;;;;;;11.23;5.43;;;;;;;26.57;53.46;95495.78;4967029;28;20464;-79
2023/07/16 04:09:50;;;;;;;12.27;5.82;;;;;;;26.47;53.73;95486.34;4967058;28;20409;-79
2023/07/16 04:12:16;;;;;;;10.38;4.82;;;;;;;26.28;53.76;95454.59;4966547;28;20050;-79
2023/07/16 04:14:43;;;;;;;8.68;5.10;;;;;;;26.66;54.02;95512.63;4968210;28;20051;-79
2023/07/16 04:17:08;;;;;;;15.65;5.47;;;;;;;26.57;53.60;95499.28;4966415;28;20084;-80
2023/07/16 04:19:34;;;;;;;10.95;5.72;;;;;;;26.27;53.59;95450.31;4966979;28;20035;-80
2023/07/16 04:21:59;;;;;;;12.85;6.60;;;;;;;26.50;54.01;95497.25;4966637;28;20038;-80
2023/07/16 04:24:26;;;;;;;9.25;5.20;;;;;;;26.54;53.58;95504.69;4966952;28;20489;-80
2023/07/16 04:26:52;;;;;;;15.35;6.10;;;;;;;26.18;54.21;95466.06;4966342;28;20100;-80
2023/07/16 04:29:18;;;;;;;9.90;5.10;;;;;;;26.11;54.35;95447.72;4966680;28;20577;-79
2023/07/16 04:31:43;;;;;;;9.27;5.22;;;;;;;26.41;54.17;95498.66;4966451;28;20118;-79
2023/07/16 04:34:09;;;;;;;14.98;6.13;;;;;;;26.64;54.03;95528.53;4966673;28;20035;-79
2023/07/16 04:36:34;;;;;;;13.55;5.80;;;;;;;26.66;54.19;95524.28;4967437;28;20074;-79
2023/07/16 04:39:00;;;;;;;8.85;5.38;;;;;;;26.63;54.13;95527.72;5060343;28;20044;-79
2023/07/16 04:41:25;;;;;;;15.13;6.50;;;;;;;26.69;53.99;95531.72;4976253;28;20035;-80
2023/07/16 04:43:51;;;;;;;20.75;6.90;;;;;;;26.61;53.96;95519.19;5057079;28;20032;-79
2023/07/16 04:46:16;;;;;;;11.85;5.20;;;;;;;26.73;53.96;95531.75;4966322;28;20031;-79
2023/07/16 04:48:42;;;;;;;11.25;5.35;;;;;;;26.74;53.96;95527.91;4966173;28;20073;-79
2023/07/16 04:51:07;;;;;;;12.23;5.68;;;;;;;26.61;54.19;95516.47;4968030;28;20138;-80
2023/07/16 04:53:33;;;;;;;12.60;6.40;;;;;;;26.70;54.30;95532.50;4966178;28;20034;-80
2023/07/16 04:55:58;;;;;;;16.73;5.95;;;;;;;26.50;54.54;95510.84;4967638;28;20093;-80
2023/07/16 04:58:24;;;;;;;9.30;5.47;;;;;;;26.68;54.17;95537.53;4967800;28;20088;-79
2023/07/16 05:00:49;;;;;;;16.30;6.22;;;;;;;26.73;54.08;95534.47;4968044;28;20109;-79
2023/07/16 05:03:15;;;;;;;10.90;5.75;;;;;;;26.66;54.39;95524.28;5032958;28;20059;-79
2023/07/16 05:05:40;;;;;;;14.68;5.50;;;;;;;26.64;54.03;95521.16;4995250;28;20034;-80
2023/07/16 05:08:06;;;;;;;10.10;5.63;;;;;;;26.78;53.87;95542.31;4969680;28;20084;-80
2023/07/16 05:10:31;;;;;;;14.40;5.15;;;;;;;26.60;53.59;95509.44;4969602;28;20406;-80
2023/07/16 05:12:56;;;;;;;15.00;5.70;;;;;;;26.72;54.20;95527.47;4969335;28;20051;-80
2023/07/16 05:15:22;;;;;;;17.40;5.55;;;;;;;26.64;54.34;95533.97;4970502;28;20112;-80
2023/07/16 05:17:47;;;;;;;14.65;5.22;;;;;;;26.49;54.13;95490.25;4970379;28;20105;-80
2023/07/16 05:20:13;;;;;;;17.00;6.38;;;;;;;26.87;53.87;95529.22;4969350;28;20059;-80
2023/07/16 05:22:38;;;;;;;12.25;4.85;;;;;;;26.77;53.66;95519.78;4969462;28;20062;-80
2023/07/16 05:25:04;;;;;;;14.43;5.57;;;;;;;26.54;54.07;95486.44;4969564;28;20487;-80
2023/07/16 05:27:29;;;;;;;12.00;5.18;;;;;;;26.61;53.56;95493.91;5010426;28;20029;-80
2023/07/16 05:29:55;;;;;;;11.00;5.03;;;;;;;26.79;53.53;95514.75;5026891;28;20342;-80
2023/07/16 05:32:21;;;;;;;10.32;5.22;;;;;;;26.84;52.93;95524.53;4969452;28;20357;-80
2023/07/16 05:34:47;;;;;;;8.10;5.35;;;;;;;26.86;53.25;95520.28;4969285;28;20030;-80
2023/07/16 05:37:12;;;;;;;16.48;5.53;;;;;;;26.93;52.86;95513.41;4969336;28;20038;-80
2023/07/16 05:39:38;;;;;;;7.63;4.78;;;;;;;26.92;52.87;95512.63;4969976;28;20117;-79
2023/07/16 05:42:04;;;;;;;9.20;4.85;;;;;;;27.10;53.03;95531.88;4969403;28;20034;-80
2023/07/16 05:44:29;;;;;;;10.50;4.82;;;;;;;27.04;52.61;95517.03;4968986;28;20119;-80
2023/07/16 05:46:55;;;;;;;10.38;4.97;;;;;;;27.17;53.17;95540.13;4969083;28;20038;-80
2023/07/16 05:49:21;;;;;;;14.15;5.45;;;;;;;27.27;52.93;95558.53;5063096;28;20028;-79
2023/07/16 05:51:46;;;;;;;9.45;4.82;;;;;;;27.25;53.17;95556.19;4970619;28;20433;-80
2023/07/16 05:54:11;;;;;;;11.25;4.78;;;;;;;27.15;52.96;95531.56;4969009;28;20039;-80
2023/07/16 05:56:37;;;;;;;9.32;5.60;;;;;;;27.24;52.46;95538.28;4970436;28;20035;-80
2023/07/16 05:59:02;;;;;;;7.70;5.07;;;;;;;27.30;52.63;95546.91;4969843;28;20026;-80
2023/07/16 06:01:28;;;;;;;9.93;5.20;;;;;;;27.18;52.89;95515.25;4968701;28;20035;-80
2023/07/16 06:03:53;;;;;;;26.40;5.35;;;;;;;27.47;52.72;95557.22;4970170;28;20092;-80
2023/07/16 06:06:19;;;;;;;18.42;5.53;;;;;;;27.46;52.97;95552.16;5020321;28;20020;-80
2023/07/16 06:08:45;;;;;;;12.07;5.53;;;;;;;27.41;52.66;95545.09;5016429;28;20404;-80
2023/07/16 06:11:12;;;;;;;8.48;5.32;;;;;;;27.42;52.76;95556.75;4968316;28;20039;-80
2023/07/16 06:13:38;;;;;;;9.80;4.95;;;;;;;27.49;52.52;95556.84;4968536;28;20055;-80
2023/07/16 06:16:04;;;;;;;7.97;5.20;;;;;;;27.48;52.23;95538.94;4968325;28;20064;-80
2023/07/16 06:18:29;;;;;;;11.95;4.95;;;;;;;27.31;52.30;95499.47;4968337;28;20114;-80
2023/07/16 06:20:55;;;;;;;7.75;5.15;;;;;;;27.68;52.25;95558.66;4968564;28;20026;-80
2023/07/16 06:23:20;;;;;;;10.93;5.15;;;;;;;27.54;52.46;95554.59;5053023;28;20025;-80
2023/07/16 06:25:49;;;;;;;8.95;4.82;;;;;;;27.60;52.10;95549.63;4980580;28;20038;-80
2023/07/16 06:28:15;;;;;;;10.40;5.03;;;;;;;27.57;51.33;95540.25;4970063;28;20039;-80
2023/07/16 06:30:41;;;;;;;10.07;4.57;;;;;;;27.52;52.34;95534.31;4968091;28;20069;-80
2023/07/16 06:33:06;;;;;;;9.15;4.97;;;;;;;27.25;51.61;95512.63;4969762;28;20035;-80
2023/07/16 06:35:33;;;;;;;11.98;5.28;;;;;;;27.61;51.23;95546.53;4968373;28;20764;-80
2023/07/16 06:37:58;;;;;;;8.40;5.00;;;;;;;27.72;51.19;95532.19;4994176;28;20104;-80
2023/07/16 06:40:24;;;;;;;13.60;5.85;;;;;;;27.60;51.03;95506.81;5041465;28;20125;-80
2023/07/16 06:42:49;;;;;;;9.48;5.50;;;;;;;27.64;50.90;95506.84;4968391;28;20035;-80
2023/07/16 06:45:15;;;;;;;9.05;5.13;;;;;;;27.76;51.02;95508.50;4968111;28;20524;-80
2023/07/16 06:47:40;;;;;;;11.43;5.00;;;;;;;27.95;51.16;95524.63;4968334;28;20084;-80
2023/07/16 06:50:06;;;;;;;7.80;4.80;;;;;;;28.00;51.53;95532.47;4968248;28;20035;-79
2023/07/16 06:52:32;;;;;;;6.03;4.25;;;;;;;28.05;51.21;95526.69;4969149;28;20078;-79
2023/07/16 06:54:57;;;;;;;8.50;5.03;;;;;;;28.17;50.64;95537.31;4968239;28;20500;-80
2023/07/16 06:57:25;;;;;;;15.60;4.97;;;;;;;28.12;50.24;95526.72;4968156;28;20061;-80
2023/07/16 06:59:50;;;;;;;13.20;4.95;;;;;;;28.19;50.21;95540.44;4968235;28;20463;-80
2023/07/16 07:02:17;;;;;;;9.00;4.50;;;;;;;28.09;50.13;95540.31;4968513;28;20023;-80
2023/07/16 07:04:42;;;;;;;7.20;4.53;;;;;;;28.16;50.70;95543.91;4969435;28;20030;-80
2023/07/16 07:07:08;;;;;;;10.85;5.03;;;;;;;27.88;50.62;95472.78;4967822;28;20031;-80
2023/07/16 07:09:34;;;;;;;8.05;5.00;;;;;;;28.40;50.39;95543.34;4967682;28;20030;-80
2023/07/16 07:11:59;;;;;;;6.63;4.50;;;;;;;28.13;50.53;95481.94;4967197;28;20042;-80
2023/07/16 07:14:25;;;;;;;10.60;5.03;;;;;;;28.22;49.56;95508.94;4967890;28;20050;-80
2023/07/16 07:16:50;;;;;;;8.70;4.88;;;;;;;28.27;49.22;95509.34;4969121;28;20030;-80
2023/07/16 07:19:16;;;;;;;7.10;4.65;;;;;;;28.39;49.04;95519.94;4969088;28;20034;-80
2023/07/16 07:21:41;;;;;;;12.40;4.75;;;;;;;28.18;49.83;95473.44;4967467;28;20386;-80
2023/07/16 07:24:06;;;;;;;11.80;5.05;;;;;;;28.53;50.01;95537.59;4967779;28;20030;-80
2023/07/16 07:26:32;;;;;;;7.15;4.47;;;;;;;28.07;48.96;95458.94;4968035;28;20122;-80
2023/07/16 07:28:57;;;;;;;8.15;4.65;;;;;;;28.55;49.05;95514.19;4966555;28;20125;-80
2023/07/16 07:31:23;;;;;;;7.03;5.00;;;;;;;28.60;48.46;95510.34;4967402;28;20058;-80
2023/07/16 07:33:48;;;;;;;11.63;4.55;;;;;;;28.61;48.21;95518.13;4967040;28;20037;-80
2023/07/16 07:36:14;;;;;;;8.68;4.90;;;;;;;28.45;48.54;95511.44;4967601;28;20039;-80
2023/07/16 07:38:39;;;;;;;12.80;4.78;;;;;;;28.50;48.22;95503.66;4968963;28;20141;-80
2023/07/16 07:41:06;;;;;;;9.10;5.28;;;;;;;28.61;49.24;95515.41;4968588;28;20558;-80
2023/07/16 07:43:31;;;;;;;6.00;4.45;;;;;;;28.76;49.38;95521.78;4967061;28;20031;-80
2023/07/16 07:45:56;;;;;;;8.98;5.03;;;;;;;28.71;48.37;95503.00;4967156;28;20035;-80
2023/07/16 07:48:22;;;;;;;14.65;5.38;;;;;;;28.80;47.67;95517.13;4967017;28;20126;-80
2023/07/16 07:50:47;;;;;;;11.93;5.65;;;;;;;28.87;47.96;95525.34;4968522;28;20058;-80
2023/07/16 07:53:14;;;;;;;13.52;5.35;;;;;;;28.93;48.30;95518.34;4966546;28;20113;-80
2023/07/16 07:55:40;;;;;;;13.20;5.88;;;;;;;28.94;47.80;95517.19;4968916;28;20035;-80
2023/07/16 07:58:06;;;;;;;8.60;5.55;;;;;;;29.04;47.55;95534.78;4968662;28;20096;-80
2023/07/16 08:00:31;;;;;;;18.58;6.00;;;;;;;28.97;47.53;95497.31;4968304;28;20026;-80
2023/07/16 08:02:57;;;;;;;9.18;5.57;;;;;;;29.00;48.59;95514.84;4966509;28;20077;-80
2023/07/16 08:05:22;;;;;;;9.38;5.57;;;;;;;29.08;47.30;95521.91;4968716;28;20461;-80
2023/07/16 08:07:48;;;;;;;14.18;6.10;;;;;;;29.01;48.06;95516.44;4966713;28;20030;-80
2023/07/16 08:10:13;;;;;;;11.13;5.53;;;;;;;29.06;48.54;95500.47;4968636;28;20039;-80
2023/07/16 08:12:39;;;;;;;10.80;6.50;;;;;;;28.55;48.29;95402.34;4968180;28;20051;-80
2023/07/16 08:15:07;;;;;;;11.57;5.47;;;;;;;29.38;48.35;95530.63;4967950;28;20115;-80
2023/07/16 08:17:32;;;;;;;10.50;5.65;;;;;;;29.23;48.25;95496.22;4968316;28;20041;-80
2023/07/16 08:19:58;;;;;;;15.18;6.00;;;;;;;29.34;47.25;95501.72;4968574;28;20114;-80
2023/07/16 08:22:24;;;;;;;10.10;5.95;;;;;;;29.24;47.22;95506.00;4968072;28;20038;-80
2023/07/16 08:24:51;;;;;;;11.20;5.88;;;;;;;29.47;47.27;95524.81;4967626;28;20114;-80
2023/07/16 08:27:16;;;;;;;10.95;5.35;;;;;;;29.44;47.52;95517.41;4968014;28;20039;-80
2023/07/16 08:29:42;;;;;;;7.97;5.38;;;;;;;29.24;47.33;95486.88;4967822;28;20042;-80
2023/07/16 08:32:08;;;;;;;11.75;6.07;;;;;;;29.35;47.33;95490.44;4966918;28;20030;-80
2023/07/16 08:34:33;;;;;;;13.73;6.18;;;;;;;29.23;47.75;95465.41;4967572;28;20027;-80
2023/07/16 08:36:59;;;;;;;13.90;6.50;;;;;;;29.48;47.05;95507.25;4966497;28;20087;-80
2023/07/16 08:39:24;;;;;;;9.52;5.47;;;;;;;29.67;46.54;95528.78;4966685;28;20058;-80
2023/07/16 08:41:50;;;;;;;15.82;6.18;;;;;;;29.47;46.76;95494.75;5020648;28;20513;-80
2023/07/16 08:44:16;;;;;;;13.68;6.25;;;;;;;29.61;47.32;95502.19;5012558;28;20629;-80
2023/07/16 08:46:42;;;;;;;11.23;6.20;;;;;;;29.41;46.86;95482.66;4971430;28;20382;-80
2023/07/16 08:49:09;;;;;;;12.88;5.95;;;;;;;29.67;46.83;95506.91;4971377;28;20393;-80
2023/07/16 08:51:36;;;;;;;10.52;6.20;;;;;;;29.89;47.49;95522.19;4971152;28;20111;-80
2023/07/16 08:54:01;;;;;;;11.70;6.07;;;;;;;29.64;46.72;95496.75;4965172;28;20486;-80
2023/07/16 08:56:27;;;;;;;9.77;6.50;;;;;;;29.10;46.92;95454.84;4968624;28;20046;-80
2023/07/16 08:58:55;;;;;;;9.07;6.78;;;;;;;29.33;46.88;95453.72;4971195;28;20043;-80
2023/07/16 09:01:21;;;;;;;12.90;6.10;;;;;;;29.01;46.61;95399.03;4969631;28;20141;-80
2023/07/16 09:03:46;;;;;;;15.18;6.45;;;;;;;29.44;47.86;95457.31;4990443;28;20107;-80
2023/07/16 09:06:12;;;;;;;11.50;6.85;;;;;;;29.72;47.28;95490.13;5043564;28;20037;-80
2023/07/16 09:08:37;;;;;;;16.42;8.02;;;;;;;29.99;46.33;95517.13;4969535;28;20047;-80
2023/07/16 09:11:03;;;;;;;16.58;6.93;;;;;;;30.03;45.74;95512.44;4969572;28;20455;-80
2023/07/16 09:13:29;;;;;;;14.40;6.70;;;;;;;29.71;45.88;95466.69;4969297;28;20142;-80
2023/07/16 09:15:56;;;;;;;12.38;6.63;;;;;;;30.12;45.67;95507.38;4970786;28;20103;-80
2023/07/16 09:18:25;;;;;;;10.23;6.68;;;;;;;30.16;46.80;95508.13;4953513;28;20429;-80
2023/07/16 09:20:55;;;;;;;15.73;7.68;;;;;;;30.13;46.73;95487.06;4971158;28;20039;-80
2023/07/16 09:23:20;;;;;;;9.63;6.97;;;;;;;30.07;46.48;95469.47;4969402;28;20501;-80
2023/07/16 09:25:46;;;;;;;9.27;7.15;;;;;;;30.24;46.36;95490.56;4969079;28;20045;-80
2023/07/16 09:28:12;;;;;;;15.48;7.57;;;;;;;30.20;47.05;95478.84;4970978;28;20150;-80
2023/07/16 09:30:37;;;;;;;9.00;6.80;;;;;;;30.37;46.15;95486.22;4970874;28;20108;-80
2023/07/16 09:33:17;;;;;;;10.13;7.28;;;;;;;30.54;46.05;95501.09;4970680;28;20458;-80
2023/07/16 09:35:43;;;;;;;10.23;7.10;;;;;;;30.56;46.76;95490.53;4999300;28;20028;-80
2023/07/16 09:38:10;;;;;;;14.65;7.72;;;;;;;30.50;47.73;95481.97;5030678;28;20031;-81
2023/07/16 09:40:37;;;;;;;10.40;8.20;;;;;;;30.74;46.93;95502.25;4969295;28;20073;-80
2023/07/16 09:43:04;;;;;;;15.35;8.45;;;;;;;30.81;46.89;95494.00;4970549;28;20031;-81
2023/07/16 09:45:29;;;;;;;17.80;8.00;;;;;;;30.70;46.22;95479.56;4970531;28;20062;-80
2023/07/16 09:47:55;;;;;;;10.88;8.02;;;;;;;30.75;45.34;95492.03;4969700;28;20070;-80
2023/07/16 09:50:23;;;;;;;15.48;8.90;;;;;;;31.04;45.19;95485.31;4969067;28;20474;-80
2023/07/16 09:52:50;;;;;;;21.67;9.00;;;;;;;31.19;43.03;95494.28;4967714;28;20070;-80
2023/07/16 09:55:18;;;;;;;22.00;8.10;;;;;;;32.06;42.07;95486.69;4970485;28;20031;-80
2023/07/16 09:57:44;;;;;;;10.82;8.02;;;;;;;32.88;40.46;95453.00;4968775;28;20104;-80
2023/07/16 10:00:12;;;;;;;13.57;7.13;;;;;;;34.07;38.69;95477.28;4968791;28;20041;-80
2023/07/16 10:02:38;;;;;;;14.48;7.32;;;;;;;34.79;37.11;95450.09;4952281;28;20032;-81
2023/07/16 10:05:16;;;;;;;16.67;7.60;;;;;;;35.89;35.14;95477.31;4970198;28;20084;-80
2023/07/16 10:07:43;;;;;;;17.67;7.10;;;;;;;36.56;34.15;95477.66;4970024;28;20489;-81
2023/07/16 10:10:10;;;;;;;13.07;7.00;;;;;;;37.04;33.51;95449.13;4952888;28;20100;-81
2023/07/16 10:12:37;;;;;;;13.98;6.82;;;;;;;37.73;32.14;95466.09;4968529;28;20509;-81
2023/07/16 10:15:04;;;;;;;9.32;6.43;;;;;;;38.20;31.18;95466.97;4970147;28;20399;-81
2023/07/16 10:17:33;;;;;;;11.77;6.65;;;;;;;38.74;31.20;95471.47;4968460;28;20060;-81
2023/07/16 10:20:21;;;;;;;11.02;6.90;;;;;;;39.06;30.24;95466.81;4968632;28;20066;-80
2023/07/16 10:22:46;;;;;;;17.15;6.60;;;;;;;39.46;30.95;95450.25;4968439;28;20037;-80
2023/07/16 10:25:18;;;;;;;11.35;6.38;;;;;;;40.07;28.95;95466.09;4970161;28;20476;-81
2023/07/16 10:27:48;;;;;;;11.82;6.88;;;;;;;40.32;28.14;95440.88;4967815;28;20088;-81
2023/07/16 10:30:15;;;;;;;7.57;6.13;;;;;;;40.64;29.05;95458.19;4968382;28;20051;-81
2023/07/16 10:32:40;;;;;;;8.73;6.40;;;;;;;40.54;27.86;95437.97;4969935;28;20053;-81
2023/07/16 10:35:08;;;;;;;11.25;6.22;;;;;;;40.70;27.86;95431.34;4969939;28;20421;-81
2023/07/16 10:37:34;;;;;;;10.40;6.57;;;;;;;40.22;27.95;95383.72;4969686;28;20035;-81
2023/07/16 10:40:03;;;;;;;12.88;6.80;;;;;;;40.59;27.72;95447.72;4967933;28;20061;-81
2023/07/16 10:42:29;;;;;;;11.40;7.13;;;;;;;39.97;27.96;95411.78;4968476;28;20023;-81
2023/07/16 10:44:58;;;;;;;12.95;6.85;;;;;;;40.25;27.85;95448.75;4968540;28;20034;-80
2023/07/16 10:47:25;;;;;;;10.30;6.97;;;;;;;40.05;28.76;95454.69;4968108;28;20031;-80
2023/07/16 10:49:54;;;;;;;12.98;7.20;;;;;;;40.16;28.88;95452.25;4969196;28;20403;-80
2023/07/16 10:52:23;;;;;;;13.23;7.10;;;;;;;40.05;28.10;95413.03;4969688;28;20061;-81
2023/07/16 10:54:50;;;;;;;13.10;7.25;;;;;;;39.77;27.70;95384.38;4951894;28;20086;-81
2023/07/16 10:57:16;;;;;;;15.77;7.13;;;;;;;40.02;27.83;95413.94;4967660;28;20023;-81
2023/07/16 10:59:44;;;;;;;13.70;7.65;;;;;;;39.45;28.34;95374.56;4967712;28;20050;-81
2023/07/16 11:02:14;;;;;;;13.40;7.35;;;;;;;39.91;28.30;95416.38;4967862;28;20030;-81
2023/07/16 11:04:41;;;;;;;12.80;7.22;;;;;;;40.31;28.67;95439.34;4968314;28;20035;-81
2023/07/16 11:07:11;;;;;;;15.52;6.90;;;;;;;40.55;27.90;95433.94;4969125;28;20122;-81
2023/07/16 11:09:48;;;;;;;13.15;7.47;;;;;;;40.54;26.93;95420.50;5024795;28;20044;-81
2023/07/16 11:12:15;;;;;;;11.70;6.68;;;;;;;40.63;26.79;95403.84;4996388;28;20076;-81
2023/07/16 11:14:45;;;;;;;16.33;7.32;;;;;;;40.91;26.76;95427.63;4969165;28;20076;-81
2023/07/16 11:17:11;;;;;;;10.65;6.78;;;;;;;41.00;26.65;95419.28;4967522;28;20322;-81
2023/07/16 11:19:37;;;;;;;12.95;6.68;;;;;;;40.96;27.58;95401.22;4967621;28;20100;-81
2023/07/16 11:22:05;;;;;;;14.65;7.32;;;;;;;41.21;26.54;95398.84;4967505;28;20045;-81